Time;durP1;ratioP1;P1;durP2;ratioP2;P2;SDS_P1;SDS_P2;PMS_P1;PMS_P2;Temp;Humidity;BMP_temperature;BMP_pressure;BME280_temperature;BME280_humidity;BME280_pressure;Samples;Min_cycle;Max_cycle;Signal;HPM_P1;HPM_P2
2022/09/10 00:02:22;;;;;;;2.38;0.68;;;;;;;-145.69;100.00;71255.16;5075602;28;20700;-75
2022/09/10 00:04:50;;;;;;;4.32;1.08;;;;;;;-145.69;100.00;71245.19;5075926;28;20253;-76
2022/09/10 00:07:17;;;;;;;2.90;0.80;;;;;;;-145.69;100.00;71249.19;5075407;28;20229;-76
2022/09/10 00:09:44;;;;;;;0.77;0.50;;;;;;;-145.69;100.00;71259.13;5075840;28;20203;-75
2022/09/10 00:12:11;;;;;;;2.88;0.52;;;;;;;-145.69;100.00;71251.16;5075624;28;20203;-75
2022/09/10 00:14:38;;;;;;;2.90;0.70;;;;;;;-145.69;100.00;71249.19;5075728;28;20206;-76
2022/09/10 00:17:05;;;;;;;2.65;0.70;;;;;;;-145.69;100.00;71255.16;5075611;28;20195;-76
2022/09/10 00:19:32;;;;;;;4.35;0.70;;;;;;;-145.69;100.00;71263.09;5075370;28;20225;-75
2022/09/10 00:21:58;;;;;;;6.15;0.98;;;;;;;-145.69;100.00;71271.06;5075152;28;20233;-75
2022/09/10 00:24:25;;;;;;;2.47;0.80;;;;;;;-145.69;100.00;71277.03;5075415;28;20229;-76
2022/09/10 00:26:51;;;;;;;2.45;0.60;;;;;;;-145.69;100.00;71281.00;5075257;28;20194;-75
2022/09/10 00:29:18;;;;;;;5.28;0.70;;;;;;;-145.69;100.00;71286.97;5075479;28;20535;-75
2022/09/10 00:31:46;;;;;;;3.67;0.60;;;;;;;-145.69;100.00;71290.97;5075406;28;20195;-76
2022/09/10 00:34:13;;;;;;;1.88;0.80;;;;;;;-145.69;100.00;71273.06;5075129;28;20210;-76
2022/09/10 00:36:42;;;;;;;1.73;0.52;;;;;;;-145.69;100.00;71261.13;5075357;28;20225;-75
2022/09/10 00:39:11;;;;;;;4.38;0.70;;;;;;;-145.69;100.00;71261.13;5075122;28;20210;-75
2022/09/10 00:41:40;;;;;;;2.67;0.70;;;;;;;-145.69;100.00;71261.13;5074711;28;20227;-75
2022/09/10 00:44:28;;;;;;;1.70;0.50;;;;;;;-145.69;100.00;71263.09;5075214;28;20202;-75
2022/09/10 00:46:58;;;;;;;2.58;0.70;;;;;;;-145.69;100.00;71261.13;5074446;28;20207;-76
2022/09/10 00:49:33;;;;;;;2.22;0.70;;;;;;;-145.69;100.00;71275.03;5074862;28;20202;-75
2022/09/10 00:52:00;;;;;;;1.40;0.60;;;;;;;-145.69;100.00;71267.09;5074624;28;20226;-76
2022/09/10 00:54:28;;;;;;;1.70;0.90;;;;;;;-145.69;100.00;71267.09;5074974;28;20202;-76
2022/09/10 00:56:59;;;;;;;6.63;1.00;;;;;;;-145.69;100.00;71271.06;5074502;28;20199;-76
2022/09/10 00:59:26;;;;;;;2.85;0.77;;;;;;;-145.69;100.00;71267.09;5074760;28;20199;-76
2022/09/10 01:01:54;;;;;;;6.25;0.90;;;;;;;-145.69;100.00;71263.09;5074771;28;20237;-76
2022/09/10 01:04:22;;;;;;;2.80;0.90;;;;;;;-145.69;100.00;71251.16;5074094;28;20718;-76
2022/09/10 01:06:51;;;;;;;2.15;0.70;;;;;;;-145.69;100.00;71257.13;5056870;28;20199;-76
2022/09/10 01:09:19;;;;;;;1.33;0.70;;;;;;;-145.69;100.00;71261.13;5064655;28;20276;-75
2022/09/10 01:12:03;;;;;;;3.53;0.60;;;;;;;-145.69;100.00;71269.06;5074587;28;20393;-76
2022/09/10 01:14:47;;;;;;;3.28;0.60;;;;;;;-145.69;100.00;71243.22;5074024;28;20191;-75
2022/09/10 01:17:25;;;;;;;1.65;0.70;;;;;;;-145.69;100.00;71249.19;5074569;28;20560;-76
2022/09/10 01:20:43;;;;;;;3.33;0.70;;;;;;;-145.69;100.00;71239.22;5073226;28;20658;-75
2022/09/10 01:23:42;;;;;;;3.97;0.80;;;;;;;-145.69;100.00;71251.16;5054562;28;20203;-75
2022/09/10 01:26:25;;;;;;;5.22;0.80;;;;;;;-145.69;100.00;71249.19;5054486;28;20207;-77
2022/09/10 01:29:00;;;;;;;1.90;0.70;;;;;;;-145.69;100.00;71261.13;5054812;28;20195;-75
2022/09/10 01:31:31;;;;;;;2.75;0.60;;;;;;;-145.69;100.00;71267.09;5054289;28;20203;-76
2022/09/10 01:34:05;;;;;;;2.15;0.73;;;;;;;-145.69;100.00;71275.03;5054433;28;20200;-76
2022/09/10 01:36:34;;;;;;;2.03;0.80;;;;;;;-145.69;100.00;71259.13;5068256;28;20653;-76
2022/09/10 01:39:02;;;;;;;2.13;0.80;;;;;;;-145.69;100.00;71249.19;5073874;28;20202;-76
2022/09/10 01:41:28;;;;;;;3.08;0.73;;;;;;;-145.69;100.00;71245.19;5073976;28;20222;-76
2022/09/10 01:43:56;;;;;;;1.45;0.60;;;;;;;-145.69;100.00;71251.16;5074031;28;20195;-76
2022/09/10 01:46:34;;;;;;;2.30;0.65;;;;;;;-145.69;100.00;71273.06;5073911;28;20202;-76
2022/09/10 01:49:13;;;;;;;1.08;0.50;;;;;;;-145.69;100.00;71283.00;5074081;28;20245;-76
2022/09/10 01:51:55;;;;;;;1.25;0.60;;;;;;;-145.69;100.00;71290.97;5073514;28;20351;-75
2022/09/10 01:54:32;;;;;;;3.53;0.85;;;;;;;-145.69;100.00;71288.97;5073404;28;20442;-75
2022/09/10 01:57:09;;;;;;;1.70;0.70;;;;;;;-145.69;100.00;71298.94;5073506;28;20198;-75
2022/09/10 01:59:45;;;;;;;4.38;0.80;;;;;;;-145.69;100.00;71296.94;5073776;28;20201;-76
2022/09/10 02:02:16;;;;;;;4.03;0.80;;;;;;;-145.69;100.00;71283.00;5073496;28;20230;-75
2022/09/10 02:04:44;;;;;;;3.33;0.68;;;;;;;-145.69;100.00;71283.00;5072955;28;20209;-76
2022/09/10 02:07:14;;;;;;;0.93;0.60;;;;;;;-145.69;100.00;71275.03;5073612;28;20199;-76
2022/09/10 02:09:41;;;;;;;1.95;0.52;;;;;;;-145.69;100.00;71271.06;5073584;28;20526;-77
2022/09/10 02:12:17;;;;;;;6.57;0.90;;;;;;;-145.69;100.00;71279.03;5073264;28;20281;-76
2022/09/10 02:14:48;;;;;;;2.00;0.52;;;;;;;-145.69;100.00;71271.06;5073575;28;20213;-77
2022/09/10 02:17:15;;;;;;;2.38;0.60;;;;;;;-145.69;100.00;71267.09;5072937;28;20777;-75
2022/09/10 02:19:43;;;;;;;4.53;0.77;;;;;;;-145.69;100.00;71275.03;5072496;28;20206;-76
2022/09/10 02:22:10;;;;;;;3.33;0.70;;;;;;;-145.69;100.00;71298.94;5072527;28;20593;-76
2022/09/10 02:24:37;;;;;;;5.30;1.00;;;;;;;-145.69;100.00;71314.84;5073113;28;20588;-76
2022/09/10 02:27:05;;;;;;;2.92;0.77;;;;;;;-145.69;100.00;71312.84;5073073;28;20206;-76
2022/09/10 02:29:33;;;;;;;3.45;0.70;;;;;;;-145.69;100.00;71324.78;5072913;28;20600;-75
2022/09/10 02:32:00;;;;;;;3.60;0.90;;;;;;;-145.69;100.00;71322.81;5072914;28;20487;-76
2022/09/10 02:34:27;;;;;;;2.42;0.80;;;;;;;-145.69;100.00;71334.75;5072727;28;20637;-76
2022/09/10 02:36:56;;;;;;;3.42;0.80;;;;;;;-145.69;100.00;71350.66;5072627;28;20401;-76
2022/09/10 02:39:23;;;;;;;1.52;0.68;;;;;;;-145.69;100.00;71356.63;5073015;28;20203;-76
2022/09/10 02:41:50;;;;;;;2.80;0.90;;;;;;;-145.69;100.00;71364.59;5072853;28;20684;-75
2022/09/10 02:44:16;;;;;;;2.92;0.85;;;;;;;-145.69;100.00;71362.59;5073017;28;20268;-76
2022/09/10 02:46:43;;;;;;;0.98;0.70;;;;;;;-145.69;100.00;71366.56;5073090;28;20198;-76
2022/09/10 02:49:10;;;;;;;1.73;0.80;;;;;;;-145.69;100.00;71356.63;5072640;28;20203;-76
2022/09/10 02:51:37;;;;;;;2.00;0.80;;;;;;;-145.69;100.00;71360.59;5072815;28;20234;-76
2022/09/10 02:54:05;;;;;;;4.33;0.83;;;;;;;-145.69;100.00;71360.59;5072575;28;20210;-75
2022/09/10 02:56:31;;;;;;;2.17;0.93;;;;;;;-145.69;100.00;71362.59;5072954;28;20198;-76
2022/09/10 02:58:58;;;;;;;3.35;0.80;;;;;;;-145.69;100.00;71370.56;5072825;28;20206;-76
2022/09/10 03:01:24;;;;;;;4.35;1.08;;;;;;;-145.69;100.00;71372.53;5071869;28;20457;-77
2022/09/10 03:03:53;;;;;;;3.87;0.90;;;;;;;-145.69;100.00;71382.50;5072553;28;20191;-76
2022/09/10 03:06:21;;;;;;;4.20;1.20;;;;;;;-145.69;100.00;71388.47;5058420;28;20234;-76
2022/09/10 03:08:49;;;;;;;6.85;1.00;;;;;;;-145.69;100.00;71390.47;5052368;28;20757;-76
2022/09/10 03:11:16;;;;;;;2.95;0.95;;;;;;;-145.69;100.00;71390.47;5051532;28;20448;-76
2022/09/10 03:13:44;;;;;;;1.85;0.60;;;;;;;-145.69;100.00;71388.47;5052673;28;20261;-76
2022/09/10 03:16:12;;;;;;;3.42;0.75;;;;;;;-145.69;100.00;71394.44;5052535;28;20206;-76
2022/09/10 03:18:38;;;;;;;2.78;0.88;;;;;;;-145.69;100.00;71392.44;5052548;28;20230;-75
2022/09/10 03:21:09;;;;;;;1.80;0.90;;;;;;;-145.69;100.00;71394.44;5052500;28;20199;-76
2022/09/10 03:23:40;;;;;;;1.33;0.80;;;;;;;-145.69;100.00;71390.47;5052637;28;20222;-76
2022/09/10 03:26:08;;;;;;;2.07;0.77;;;;;;;-145.69;100.00;71392.44;5052893;28;20195;-76
2022/09/10 03:28:36;;;;;;;2.75;0.80;;;;;;;-145.69;100.00;71396.44;5052413;28;20207;-76
2022/09/10 03:31:02;;;;;;;4.77;1.07;;;;;;;-145.69;100.00;71388.47;5067379;28;20199;-76
2022/09/10 03:33:29;;;;;;;3.67;1.17;;;;;;;-145.69;100.00;71396.44;5075754;28;20263;-76
2022/09/10 03:35:55;;;;;;;1.60;0.77;;;;;;;-145.69;100.00;71402.41;5076263;28;20202;-76
2022/09/10 03:38:22;;;;;;;3.45;0.82;;;;;;;-145.69;100.00;71402.41;5076658;28;20199;-76
2022/09/10 03:40:51;;;;;;;3.70;1.10;;;;;;;-145.69;100.00;71408.38;5076273;28;20661;-76
2022/09/10 03:43:18;;;;;;;3.87;1.10;;;;;;;-145.69;100.00;71420.31;5076004;28;20790;-76
2022/09/10 03:45:47;;;;;;;2.83;0.90;;;;;;;-145.69;100.00;71412.34;5076140;28;20210;-76
2022/09/10 03:48:13;;;;;;;0.87;0.80;;;;;;;-145.69;100.00;71404.38;5075745;28;20726;-75
2022/09/10 03:50:40;;;;;;;2.80;0.88;;;;;;;-145.69;100.00;71400.41;5076027;28;20235;-76
2022/09/10 03:53:06;;;;;;;1.45;0.70;;;;;;;-145.69;100.00;71404.38;5076237;28;20230;-75
2022/09/10 03:55:33;;;;;;;6.28;1.00;;;;;;;-145.69;100.00;71418.31;5076386;28;20206;-75
2022/09/10 03:58:01;;;;;;;2.67;0.70;;;;;;;-145.69;100.00;71434.22;5075892;28;20212;-75
2022/09/10 04:00:27;;;;;;;3.70;0.90;;;;;;;-145.69;100.00;71444.19;5055749;28;20197;-75
2022/09/10 04:02:54;;;;;;;3.10;1.00;;;;;;;-145.69;100.00;71438.22;5055694;28;20231;-75
2022/09/10 04:05:21;;;;;;;2.40;0.97;;;;;;;-145.69;100.00;71444.19;5055609;28;20204;-75
2022/09/10 04:07:47;;;;;;;3.87;0.90;;;;;;;-145.69;100.00;71442.19;5055857;28;20214;-75
2022/09/10 04:10:14;;;;;;;6.37;1.27;;;;;;;-145.69;100.00;71448.16;5071245;28;20199;-75
2022/09/10 04:12:41;;;;;;;4.17;1.10;;;;;;;-145.69;100.00;71438.22;5075830;28;20205;-75
2022/09/10 04:15:10;;;;;;;2.17;0.88;;;;;;;-145.69;100.00;71446.16;5075609;28;20198;-76
2022/09/10 04:17:37;;;;;;;3.53;0.90;;;;;;;-145.69;100.00;71440.19;5075879;28;20305;-75
2022/09/10 04:20:04;;;;;;;3.08;0.70;;;;;;;-145.69;100.00;71422.28;5074991;28;20225;-75
2022/09/10 04:22:30;;;;;;;2.67;1.00;;;;;;;-145.69;100.00;71434.22;5075493;28;20227;-76
2022/09/10 04:24:58;;;;;;;1.90;0.83;;;;;;;-145.69;100.00;71430.25;5075634;28;20194;-75
2022/09/10 04:27:25;;;;;;;4.87;1.07;;;;;;;-145.69;100.00;71442.19;5075370;28;20302;-75
2022/09/10 04:29:51;;;;;;;3.10;0.90;;;;;;;-145.69;100.00;71456.13;5075051;28;20281;-75
2022/09/10 04:32:19;;;;;;;2.33;0.80;;;;;;;-145.69;100.00;71470.06;5075082;28;20599;-75
2022/09/10 04:34:46;;;;;;;3.53;1.07;;;;;;;-145.69;100.00;71476.03;5075344;28;20203;-75
2022/09/10 04:37:12;;;;;;;2.63;0.93;;;;;;;-145.69;100.00;71474.03;5074909;28;20557;-75
2022/09/10 04:39:39;;;;;;;4.43;0.80;;;;;;;-145.69;100.00;71470.06;5075161;28;20209;-75
2022/09/10 04:42:07;;;;;;;4.07;0.93;;;;;;;-145.69;100.00;71474.03;5074893;28;20226;-75
2022/09/10 04:44:33;;;;;;;0.90;0.90;;;;;;;-145.69;100.00;71482.00;5074586;28;20252;-75
2022/09/10 04:47:00;;;;;;;4.07;1.17;;;;;;;-145.69;100.00;71489.94;5074769;28;20209;-75
2022/09/10 04:49:27;;;;;;;3.50;0.90;;;;;;;-145.69;100.00;71503.88;5074973;28;20206;-75
2022/09/10 04:51:54;;;;;;;4.03;1.07;;;;;;;-145.69;100.00;71515.81;5074697;28;20662;-75
2022/09/10 04:54:21;;;;;;;2.80;0.93;;;;;;;-145.69;100.00;71527.75;5074813;28;20203;-76
2022/09/10 04:56:48;;;;;;;2.97;1.00;;;;;;;-145.69;100.00;71529.75;5074496;28;20569;-75
2022/09/10 04:59:15;;;;;;;4.23;1.10;;;;;;;-145.69;100.00;71533.72;5074636;28;20226;-75
2022/09/10 05:01:41;;;;;;;3.80;1.00;;;;;;;-145.69;100.00;71537.72;5074995;28;20217;-75
2022/09/10 05:04:07;;;;;;;4.77;1.20;;;;;;;-145.69;100.00;71539.69;5074551;28;20227;-75
2022/09/10 05:06:35;;;;;;;5.00;1.00;;;;;;;-145.69;100.00;71549.66;5074868;28;20207;-76
2022/09/10 05:09:02;;;;;;;2.77;0.77;;;;;;;-145.69;100.00;71549.66;5056875;28;20207;-76
2022/09/10 05:11:28;;;;;;;6.33;1.10;;;;;;;-145.69;100.00;71559.59;5066652;28;20665;-75
2022/09/10 05:13:55;;;;;;;2.30;1.03;;;;;;;-145.69;100.00;71553.63;5074619;28;20564;-75
2022/09/10 05:16:21;;;;;;;2.00;1.07;;;;;;;-145.69;100.00;71553.63;5074891;28;20198;-75
2022/09/10 05:18:47;;;;;;;1.40;0.97;;;;;;;-145.69;100.00;71549.66;5074605;28;20202;-75
2022/09/10 05:21:14;;;;;;;1.80;1.00;;;;;;;-145.69;100.00;71545.66;5074259;28;20297;-75
2022/09/10 05:23:42;;;;;;;5.17;1.07;;;;;;;-145.69;100.00;71545.66;5074104;28;20241;-75
2022/09/10 05:26:09;;;;;;;3.57;1.00;;;;;;;-145.69;100.00;71541.69;5073992;28;20199;-75
2022/09/10 05:28:35;;;;;;;4.23;1.30;;;;;;;-145.69;100.00;71515.81;5074223;28;20198;-75
2022/09/10 05:31:02;;;;;;;3.07;1.73;;;;;;;-145.69;100.00;71501.88;5073975;28;20209;-75
2022/09/10 05:33:28;;;;;;;4.80;1.30;;;;;;;-145.69;100.00;71482.00;5074057;28;20206;-75
2022/09/10 05:35:55;;;;;;;3.47;1.20;;;;;;;-145.69;100.00;71466.06;5074139;28;20199;-75
2022/09/10 05:38:22;;;;;;;2.00;1.07;;;;;;;-145.69;100.00;71452.16;5074113;28;20206;-75
2022/09/10 05:40:51;;;;;;;3.47;1.30;;;;;;;-145.69;100.00;71446.16;5073334;28;20438;-75
2022/09/10 05:43:17;;;;;;;2.47;1.10;;;;;;;-145.69;100.00;71436.22;5074023;28;20238;-75
2022/09/10 05:45:44;;;;;;;1.40;1.00;;;;;;;-145.69;100.00;71438.22;5074019;28;20209;-75
2022/09/10 05:48:10;;;;;;;1.97;0.90;;;;;;;-145.69;100.00;71438.22;5073594;28;20203;-75
2022/09/10 05:50:38;;;;;;;4.87;1.07;;;;;;;-145.69;100.00;71424.28;5073702;28;20238;-75
2022/09/10 05:53:04;;;;;;;1.63;1.07;;;;;;;-145.69;100.00;71418.31;5073664;28;20238;-75
2022/09/10 05:55:32;;;;;;;3.73;0.97;;;;;;;-145.69;100.00;71412.34;5072938;28;20199;-75
2022/09/10 05:58:00;;;;;;;2.60;1.00;;;;;;;-145.69;100.00;71414.34;5073287;28;20290;-74
2022/09/10 06:00:26;;;;;;;1.10;1.00;;;;;;;-145.69;100.00;71416.31;5073704;28;20241;-75
2022/09/10 06:02:53;;;;;;;3.23;1.23;;;;;;;-145.69;100.00;71404.38;5073494;28;20233;-75
2022/09/10 06:05:20;;;;;;;4.30;1.10;;;;;;;-145.69;100.00;71394.44;5073643;28;20202;-76
2022/09/10 06:07:46;;;;;;;1.47;0.90;;;;;;;-145.69;100.00;71374.53;5073395;28;20195;-75
2022/09/10 06:10:13;;;;;;;1.80;0.90;;;;;;;-145.69;100.00;71364.59;5073467;28;20202;-75
2022/09/10 06:12:40;;;;;;;1.98;0.70;;;;;;;-145.69;100.00;71358.63;5073560;28;20206;-76
2022/09/10 06:15:09;;;;;;;2.40;0.85;;;;;;;-145.69;100.00;71346.69;5073452;28;20222;-75
2022/09/10 06:17:37;;;;;;;3.65;0.60;;;;;;;-145.69;100.00;71330.75;5073545;28;20194;-77
2022/09/10 06:20:03;;;;;;;0.93;0.60;;;;;;;-145.69;100.00;71330.75;5073853;28;20553;-76
2022/09/10 06:22:30;;;;;;;5.30;0.80;;;;;;;-145.69;100.00;71328.78;5072956;28;20195;-76
2022/09/10 06:24:57;;;;;;;3.00;0.65;;;;;;;-145.69;100.00;71328.78;5073533;28;20663;-77
2022/09/10 06:27:24;;;;;;;1.90;0.47;;;;;;;-145.69;100.00;71314.84;5073097;28;20198;-75
2022/09/10 06:29:51;;;;;;;0.80;0.50;;;;;;;-145.69;100.00;71310.84;5073294;28;20198;-76
2022/09/10 06:32:20;;;;;;;1.40;0.63;;;;;;;-145.69;100.00;71312.84;5073086;28;20199;-76
2022/09/10 06:34:46;;;;;;;2.33;0.60;;;;;;;-145.69;100.00;71314.84;5073016;28;20222;-76
2022/09/10 06:37:13;;;;;;;0.40;0.40;;;;;;;-145.69;100.00;71286.97;5072964;28;20199;-76
2022/09/10 06:39:39;;;;;;;1.05;0.45;;;;;;;-145.69;100.00;71279.03;5073010;28;20208;-76
2022/09/10 06:42:07;;;;;;;1.73;0.60;;;;;;;-145.69;100.00;71271.06;5072943;28;20320;-76
2022/09/10 06:44:33;;;;;;;2.15;0.60;;;;;;;-145.69;100.00;71281.00;5073023;28;20226;-76
2022/09/10 06:47:01;;;;;;;1.95;0.47;;;;;;;-145.69;100.00;71275.03;5072972;28;20202;-76
2022/09/10 06:49:30;;;;;;;0.65;0.45;;;;;;;-145.69;100.00;71275.03;5072807;28;20198;-76
2022/09/10 06:51:56;;;;;;;2.20;0.30;;;;;;;-145.69;100.00;71275.03;5072737;28;20227;-77
2022/09/10 06:54:24;;;;;;;0.30;0.30;;;;;;;-145.69;100.00;71298.94;5072623;28;20202;-76
2022/09/10 06:56:51;;;;;;;0.90;0.30;;;;;;;-145.69;100.00;71283.00;5072574;28;20676;-76
2022/09/10 06:59:17;;;;;;;0.90;0.30;;;;;;;-145.69;100.00;71281.00;5072817;28;20556;-75
2022/09/10 07:01:46;;;;;;;0.30;0.30;;;;;;;-145.69;100.00;71275.03;5073155;28;20210;-76
2022/09/10 07:04:12;;;;;;;0.57;0.40;;;;;;;-145.69;100.00;71247.19;5072941;28;20234;-76
2022/09/10 07:06:41;;;;;;;2.00;0.30;;;;;;;-145.69;100.00;71261.13;5074948;28;20194;-76
2022/09/10 07:09:07;;;;;;;2.63;0.38;;;;;;;-145.69;100.00;71239.22;5076749;28;20661;-76
2022/09/10 07:11:34;;;;;;;0.35;0.30;;;;;;;-145.69;100.00;71235.25;5066826;28;20203;-76
2022/09/10 07:14:00;;;;;;;0.75;0.30;;;;;;;-145.69;100.00;71231.28;5056907;28;20199;-76
2022/09/10 07:16:28;;;;;;;0.60;0.30;;;;;;;-145.69;100.00;71217.34;5056749;28;20301;-76
2022/09/10 07:18:56;;;;;;;0.30;0.30;;;;;;;-145.69;100.00;71223.31;5056707;28;20199;-76
2022/09/10 07:21:24;;;;;;;0.90;0.30;;;;;;;-145.69;100.00;71205.41;5056434;28;20207;-76
2022/09/10 07:23:56;;;;;;;1.00;0.30;;;;;;;-145.69;100.00;71191.47;5056655;28;20227;-75
2022/09/10 07:26:23;;;;;;;0.40;0.30;;;;;;;-145.69;100.00;71123.81;5058915;28;20222;-75
2022/09/10 07:28:51;;;;;;;0.47;0.30;;;;;;;-145.69;100.00;71097.97;5076059;28;20213;-76
2022/09/10 07:31:19;;;;;;;0.47;0.30;;;;;;;-145.69;100.00;71111.88;5076472;28;20206;-75
2022/09/10 07:33:46;;;;;;;1.27;0.30;;;;;;;-145.69;100.00;71153.66;5076697;28;20199;-76
2022/09/10 07:36:14;;;;;;;1.48;0.28;;;;;;;-145.69;100.00;71115.88;5076099;28;20291;-75
2022/09/10 07:38:41;;;;;;;0.32;0.30;;;;;;;-145.69;100.00;71131.78;5076264;28;20194;-75
2022/09/10 07:41:12;;;;;;;0.50;0.22;;;;;;;-145.69;100.00;71125.81;5076305;28;20649;-76
2022/09/10 07:43:38;;;;;;;0.40;0.40;;;;;;;-145.69;100.00;71099.94;5076674;28;20226;-75
2022/09/10 07:46:05;;;;;;;0.55;0.30;;;;;;;-145.69;100.00;71105.91;5075704;28;20256;-78
2022/09/10 07:48:32;;;;;;;0.30;0.22;;;;;;;-145.69;100.00;71082.03;5076225;28;20209;-77
2022/09/10 07:51:03;;;;;;;0.30;0.30;;;;;;;-145.69;100.00;71062.13;5076015;28;20235;-77
2022/09/10 07:53:30;;;;;;;1.60;0.40;;;;;;;-145.69;100.00;71084.03;5075703;28;20661;-76
2022/09/10 07:56:01;;;;;;;0.57;0.40;;;;;;;-145.69;100.00;71137.75;5075409;28;20194;-76
2022/09/10 07:58:30;;;;;;;0.82;0.30;;;;;;;-145.69;100.00;71103.94;5075865;28;20645;-76
2022/09/10 08:00:58;;;;;;;2.55;0.35;;;;;;;-145.69;100.00;71060.16;5075905;28;20658;-76
2022/09/10 08:03:25;;;;;;;1.95;0.40;;;;;;;-145.69;100.00;71097.97;5075979;28;20241;-77
2022/09/10 08:05:52;;;;;;;2.67;0.50;;;;;;;-145.69;100.00;71095.97;5075281;28;20553;-77
2022/09/10 08:08:19;;;;;;;1.40;0.45;;;;;;;-145.69;100.00;71070.09;5075574;28;20210;-75
2022/09/10 08:10:45;;;;;;;2.05;0.52;;;;;;;-145.69;100.00;71119.84;5075708;28;20665;-74
2022/09/10 08:13:12;;;;;;;2.08;0.40;;;;;;;-145.69;100.00;71173.56;5075907;28;20199;-75
2022/09/10 08:15:43;;;;;;;0.70;0.32;;;;;;;-145.69;100.00;71147.69;5074583;28;20964;-76
2022/09/10 08:18:10;;;;;;;5.57;0.60;;;;;;;-145.69;100.00;71123.81;5074660;28;20234;-76
2022/09/10 08:20:38;;;;;;;1.85;0.50;;;;;;;-145.69;100.00;71145.72;5075336;28;20195;-75
2022/09/10 08:23:05;;;;;;;0.85;0.28;;;;;;;-145.69;100.00;71141.72;5065211;28;20290;-75
2022/09/10 08:25:33;;;;;;;0.63;0.30;;;;;;;-145.69;100.00;71088.00;5055464;28;20242;-75
2022/09/10 08:28:00;;;;;;;1.80;0.50;;;;;;;-145.69;100.00;71052.19;5055481;28;20202;-75
2022/09/10 08:30:27;;;;;;;2.30;0.45;;;;;;;-145.69;100.00;71070.09;5055049;28;20203;-74
2022/09/10 08:32:55;;;;;;;2.70;0.60;;;;;;;-145.69;100.00;71086.03;5059298;28;20249;-74
2022/09/10 08:35:21;;;;;;;1.55;0.52;;;;;;;-145.69;100.00;71159.63;5075241;28;20252;-75
2022/09/10 08:37:48;;;;;;;1.80;0.50;;;;;;;-145.69;100.00;71131.78;5075089;28;20482;-76
2022/09/10 08:40:15;;;;;;;0.75;0.40;;;;;;;-145.69;100.00;71135.75;5074764;28;20209;-75
2022/09/10 08:42:47;;;;;;;1.60;0.47;;;;;;;-145.69;100.00;71092.00;5074507;28;20732;-76
2022/09/10 08:45:19;;;;;;;1.65;0.50;;;;;;;-145.69;100.00;71048.22;5075106;28;20304;-76
2022/09/10 08:47:54;;;;;;;1.17;0.50;;;;;;;-145.69;100.00;71046.22;5074858;28;20207;-76
2022/09/10 08:50:32;;;;;;;2.03;0.40;;;;;;;-145.69;100.00;71036.28;5074291;28;20700;-75
2022/09/10 08:53:05;;;;;;;0.50;0.40;;;;;;;-145.69;100.00;71076.06;5075086;28;20203;-74
2022/09/10 08:55:34;;;;;;;0.40;0.40;;;;;;;-145.69;100.00;71090.00;5074834;28;20656;-76
2022/09/10 08:58:10;;;;;;;0.88;0.30;;;;;;;-145.69;100.00;71115.88;5074599;28;20260;-75
2022/09/10 09:00:39;;;;;;;0.75;0.40;;;;;;;-145.69;100.00;71127.81;5074647;28;20202;-75
2022/09/10 09:03:14;;;;;;;1.35;0.50;;;;;;;-145.69;100.00;71135.75;5074483;28;20237;-75
2022/09/10 09:05:46;;;;;;;1.05;0.40;;;;;;;-145.69;100.00;71123.81;5074694;28;20222;-75
2022/09/10 09:08:16;;;;;;;3.08;0.52;;;;;;;-145.69;100.00;71159.63;5073770;28;20676;-77
2022/09/10 09:10:48;;;;;;;2.30;0.77;;;;;;;-145.69;100.00;71223.31;5074459;28;20190;-75
2022/09/10 09:13:39;;;;;;;1.60;0.40;;;;;;;-145.69;100.00;71231.28;5074462;28;20210;-75
2022/09/10 09:16:20;;;;;;;1.30;0.50;;;;;;;-145.69;100.00;71239.22;5075799;28;20549;-75
2022/09/10 09:19:03;;;;;;;0.50;0.50;;;;;;;-145.69;100.00;71223.31;5074318;28;20199;-75
2022/09/10 09:21:40;;;;;;;0.70;0.40;;;;;;;-145.69;100.00;71151.69;5067936;28;20203;-76
2022/09/10 09:24:20;;;;;;;2.70;0.40;;;;;;;-145.69;100.00;71135.75;5053862;28;20650;-75
2022/09/10 09:26:46;;;;;;;0.60;0.40;;;;;;;-145.69;100.00;71121.84;5066687;28;20187;-75
2022/09/10 09:29:17;;;;;;;0.77;0.52;;;;;;;-145.69;100.00;71068.13;5074166;28;20203;-75
2022/09/10 09:31:48;;;;;;;1.75;0.47;;;;;;;-145.69;100.00;70924.84;5074494;28;20654;-76
2022/09/10 09:34:19;;;;;;;2.75;0.50;;;;;;;-145.69;100.00;70893.03;5074084;28;20204;-76
2022/09/10 09:36:50;;;;;;;0.73;0.30;;;;;;;-145.69;100.00;70855.22;5074141;28;20199;-76
2022/09/10 09:39:21;;;;;;;0.70;0.32;;;;;;;-145.69;97.29;70803.50;5074194;28;20199;-76
2022/09/10 09:41:59;;;;;;;1.30;0.55;;;;;;;-145.69;100.00;70920.88;5073705;28;20293;-75
2022/09/10 09:44:30;;;;;;;0.95;0.43;;;;;;;-145.69;100.00;70994.50;5073756;28;20222;-77
2022/09/10 09:46:56;;;;;;;1.45;0.55;;;;;;;-145.69;100.00;71058.16;5074116;28;20289;-76
2022/09/10 09:49:24;;;;;;;1.50;0.40;;;;;;;-145.69;100.00;71090.00;5073889;28;20217;-76
2022/09/10 09:51:53;;;;;;;0.50;0.40;;;;;;;-145.69;100.00;71101.94;5067019;28;20230;-76
2022/09/10 09:54:24;;;;;;;1.83;0.50;;;;;;;-145.69;100.00;71105.91;5073753;28;20237;-76
2022/09/10 09:56:53;;;;;;;5.35;0.50;;;;;;;-145.69;100.00;71103.94;5073618;28;20636;-76
2022/09/10 09:59:26;;;;;;;1.80;0.60;;;;;;;-145.69;100.00;71117.84;5073880;28;20203;-77
2022/09/10 10:01:53;;;;;;;1.48;0.60;;;;;;;-145.69;100.00;71107.91;5073707;28;20199;-76
2022/09/10 10:04:23;;;;;;;2.67;0.57;;;;;;;-145.69;100.00;71107.91;5073565;28;20264;-76
2022/09/10 10:06:56;;;;;;;2.42;0.40;;;;;;;-145.69;100.00;71024.34;5073380;28;20684;-75
2022/09/10 10:09:27;;;;;;;1.77;0.50;;;;;;;-145.69;100.00;70992.50;5073256;28;20203;-76
2022/09/10 10:11:56;;;;;;;0.70;0.43;;;;;;;-145.69;100.00;71008.41;5072939;28;20952;-76
2022/09/10 10:14:36;;;;;;;1.90;0.50;;;;;;;-145.69;100.00;70972.59;5073333;28;20256;-76
2022/09/10 10:17:22;;;;;;;1.98;0.50;;;;;;;-145.69;100.00;71086.03;5060214;28;20214;-76
2022/09/10 10:19:58;;;;;;;1.13;0.65;;;;;;;-145.69;100.00;71131.78;5052679;28;20203;-76
2022/09/10 10:22:28;;;;;;;3.15;0.55;;;;;;;-145.69;100.00;71181.53;5054919;28;20621;-76
2022/09/10 10:24:56;;;;;;;1.67;0.80;;;;;;;-145.69;100.00;71213.38;5053690;28;20231;-76
2022/09/10 10:27:29;;;;;;;1.85;0.60;;;;;;;-145.69;100.00;71231.28;5053367;28;20207;-75
2022/09/10 10:29:59;;;;;;;1.95;0.63;;;;;;;-145.69;100.00;71227.28;5053357;28;20239;-76
2022/09/10 10:32:39;;;;;;;1.77;0.60;;;;;;;-145.69;100.00;71225.31;5053002;28;20241;-76
2022/09/10 10:35:23;;;;;;;3.22;0.50;;;;;;;-145.69;100.00;71255.16;5053075;28;20650;-76
2022/09/10 10:38:09;;;;;;;2.53;0.60;;;;;;;-145.69;100.00;71241.22;5055837;28;20744;-76
2022/09/10 10:40:43;;;;;;;1.92;0.70;;;;;;;-145.69;100.00;71283.00;5072682;28;20210;-75
2022/09/10 10:43:23;;;;;;;3.67;0.70;;;;;;;-145.69;100.00;71308.88;5073356;28;20261;-76
2022/09/10 10:45:59;;;;;;;1.90;0.50;;;;;;;-145.69;100.00;71324.78;5073002;28;20229;-75
2022/09/10 10:48:38;;;;;;;1.52;0.60;;;;;;;-145.69;100.00;71294.94;5073084;28;20599;-75
2022/09/10 10:51:13;;;;;;;4.10;0.60;;;;;;;-145.69;100.00;71288.97;5072845;28;20578;-75
2022/09/10 10:54:03;;;;;;;1.48;0.68;;;;;;;-145.69;100.00;71279.03;5073010;28;20228;-76
2022/09/10 10:56:36;;;;;;;2.05;0.57;;;;;;;-145.69;100.00;71324.78;5073349;28;20206;-75
2022/09/10 10:59:27;;;;;;;3.50;0.70;;;;;;;-145.69;100.00;71314.84;5073216;28;20198;-75
2022/09/10 11:02:00;;;;;;;4.60;1.23;;;;;;;-145.69;100.00;71306.88;5069979;28;20552;-75
2022/09/10 11:04:35;;;;;;;1.00;0.50;;;;;;;-145.69;100.00;71306.88;5072988;28;20226;-75
2022/09/10 11:07:08;;;;;;;1.52;0.60;;;;;;;-145.69;100.00;71261.13;5072858;28;20206;-75
2022/09/10 11:09:43;;;;;;;1.23;0.70;;;;;;;-145.69;100.00;71191.47;5073026;28;20203;-75
2022/09/10 11:12:16;;;;;;;2.58;1.17;;;;;;;-145.69;100.00;71181.53;5072650;28;20198;-75
2022/09/10 11:14:48;;;;;;;1.98;0.60;;;;;;;-145.69;100.00;71179.53;5068978;28;20210;-75
2022/09/10 11:17:19;;;;;;;2.30;0.80;;;;;;;-145.69;100.00;71147.69;5072605;28;20202;-76
2022/09/10 11:19:52;;;;;;;0.40;0.40;;;;;;;-145.69;100.00;71101.94;5072546;28;20611;-75
2022/09/10 11:22:22;;;;;;;0.50;0.45;;;;;;;-145.69;100.00;71070.09;5072437;28;20198;-76